createdAt,value
2022-08-28T00:16:21.039Z,25.79
2022-08-28T00:19:40.117Z,25.82
2022-08-28T00:22:37.703Z,25.80
2022-08-28T01:18:23.056Z,25.76
2022-08-28T01:31:06.721Z,25.76
2022-08-28T01:34:03.225Z,25.79
2022-08-28T01:36:57.089Z,25.77
2022-08-28T01:39:48.319Z,25.75
2022-08-28T01:42:48.858Z,25.75
2022-08-28T01:45:53.937Z,25.72
2022-08-28T01:48:33.550Z,25.72
2022-08-28T01:54:03.787Z,25.72
2022-08-28T01:56:53.148Z,25.76
2022-08-28T01:59:49.360Z,25.73
2022-08-28T02:06:05.924Z,25.71
2022-08-28T02:09:02.077Z,25.69
2022-08-28T02:12:32.666Z,25.70
2022-08-28T02:14:41.982Z,25.67
2022-08-28T02:17:21.597Z,25.69
2022-08-28T02:20:11.170Z,25.68
2022-08-28T02:22:57.885Z,25.69
2022-08-28T02:25:32.316Z,25.68
2022-08-28T02:28:21.002Z,25.70
2022-08-28T02:31:14.715Z,25.69
2022-08-28T02:34:11.114Z,25.69
2022-08-28T02:37:12.985Z,25.64
2022-08-28T02:39:59.479Z,25.66
2022-08-28T02:42:36.247Z,25.65
2022-08-28T02:45:28.285Z,25.65
2022-08-28T02:51:36.007Z,25.67
2022-08-28T02:54:41.155Z,25.65
2022-08-28T02:57:53.645Z,25.64
2022-08-28T03:00:45.815Z,25.66
2022-08-28T03:03:45.371Z,25.64
2022-08-28T03:06:54.364Z,25.69
2022-08-28T03:09:42.351Z,25.63
2022-08-28T03:12:42.623Z,25.66
2022-08-28T03:15:57.371Z,25.62
2022-08-28T03:22:04.293Z,25.63
2022-08-28T03:41:47.178Z,25.61
2022-08-28T03:49:35.330Z,25.60
2022-08-28T04:24:22.923Z,25.57
2022-08-28T04:29:57.427Z,25.55
2022-08-28T04:33:01.916Z,25.62
2022-08-28T04:37:03.304Z,25.61
2022-08-28T04:49:25.946Z,25.55
2022-08-28T04:52:26.569Z,25.56
2022-08-28T05:02:58.250Z,25.55
2022-08-28T05:06:07.160Z,25.60
2022-08-28T05:09:11.244Z,25.56
2022-08-28T05:13:20.707Z,25.51
2022-08-28T05:15:53.972Z,25.53
2022-08-28T05:21:32.468Z,25.51
2022-08-28T05:24:53.307Z,25.53
2022-08-28T05:27:25.977Z,25.51
2022-08-28T05:30:48.581Z,25.54
2022-08-28T05:33:38.779Z,25.52
2022-08-28T05:36:15.454Z,25.53
2022-08-28T05:39:28.597Z,25.58
2022-08-28T05:42:01.394Z,25.57
2022-08-28T05:44:58.363Z,25.55
2022-08-28T05:48:17.899Z,25.55
2022-08-28T05:50:36.878Z,25.59
2022-08-28T05:53:30.458Z,25.59
2022-08-28T05:58:03.862Z,25.53
2022-08-28T06:02:25.164Z,25.54
2022-08-28T06:05:03.766Z,25.55
2022-08-28T06:51:09.881Z,25.52
2022-08-28T07:01:50.791Z,25.52
2022-08-28T07:05:42.783Z,25.58
2022-08-28T07:08:04.354Z,25.56
2022-08-28T07:20:30.073Z,25.57
2022-08-28T07:23:29.009Z,25.58
